Time;durP1;ratioP1;P1;durP2;ratioP2;P2;SDS_P1;SDS_P2;PMS_P1;PMS_P2;Temp;Humidity;BMP_temperature;BMP_pressure;BME280_temperature;BME280_humidity;BME280_pressure;Samples;Min_cycle;Max_cycle;Signal;HPM_P1;HPM_P2
2022/06/28 00:01:57;;;;;;;5.63;4.40;;;;;;;-143.84;76.25;45005.28;5054411;28;20991;-79
2022/06/28 00:04:26;;;;;;;5.10;4.70;;;;;;;-143.84;76.57;45014.78;5051613;28;20486;-78
2022/06/28 00:06:54;;;;;;;7.33;4.90;;;;;;;-143.84;75.98;45033.84;5050045;28;20450;-79
2022/06/28 00:09:22;;;;;;;7.00;4.27;;;;;;;-143.84;75.86;45039.53;5052439;28;20461;-78
2022/06/28 00:11:49;;;;;;;7.00;4.50;;;;;;;-143.84;75.56;45016.69;5053086;28;20450;-78
2022/06/28 00:17:01;;;;;;;10.83;4.70;;;;;;;-143.84;74.48;45028.13;5032883;28;20444;-79
2022/06/28 00:19:30;;;;;;;5.10;4.30;;;;;;;-143.84;74.52;45016.69;5053480;28;20485;-79
2022/06/28 00:21:57;;;;;;;5.63;4.83;;;;;;;-143.84;73.88;45012.88;5054182;28;20442;-79
2022/06/28 00:24:26;;;;;;;7.50;4.07;;;;;;;-143.84;73.76;45030.03;5053938;28;20445;-77
2022/06/28 00:26:54;;;;;;;9.40;4.80;;;;;;;-143.84;73.39;45052.88;5053490;28;20930;-77
2022/06/28 00:29:21;;;;;;;6.70;4.53;;;;;;;-143.84;73.87;45035.75;5053992;28;20521;-77
2022/06/28 00:31:48;;;;;;;10.30;4.03;;;;;;;-143.84;73.39;45030.03;5053425;28;20438;-77
2022/06/28 00:34:15;;;;;;;15.63;3.73;;;;;;;-143.84;73.50;45014.78;5053903;28;20442;-77
2022/06/28 00:36:44;;;;;;;13.03;4.50;;;;;;;-143.84;73.33;45037.66;5053942;28;20500;-77
2022/06/28 00:39:11;;;;;;;9.20;3.97;;;;;;;-143.84;72.83;45005.28;5053531;28;21049;-77
2022/06/28 00:41:39;;;;;;;8.20;3.47;;;;;;;-143.84;73.00;45043.34;5053982;28;20500;-78
2022/06/28 00:44:07;;;;;;;9.23;4.00;;;;;;;-143.84;72.88;45035.75;5053945;28;20803;-78
2022/06/28 00:46:34;;;;;;;4.70;4.10;;;;;;;-143.84;73.50;45030.03;5053685;28;20450;-78
2022/06/28 00:49:02;;;;;;;5.00;3.93;;;;;;;-143.84;73.60;45022.41;5052418;28;20472;-78
2022/06/28 00:51:29;;;;;;;7.43;4.20;;;;;;;-143.84;73.72;45033.84;5051805;28;20500;-78
2022/06/28 00:53:58;;;;;;;4.57;3.87;;;;;;;-143.84;73.57;45041.44;5052496;28;20480;-78
2022/06/28 00:56:26;;;;;;;7.87;4.00;;;;;;;-143.84;73.42;45012.88;5053407;28;20460;-78
2022/06/28 00:58:55;;;;;;;9.40;4.03;;;;;;;-143.84;73.36;45030.03;5072815;28;20491;-78
2022/06/28 01:01:22;;;;;;;4.37;3.83;;;;;;;-143.84;73.12;45020.50;5072191;28;20441;-77
2022/06/28 01:03:50;;;;;;;6.47;3.43;;;;;;;-143.84;73.20;45028.13;5071908;28;20452;-77
2022/06/28 01:06:17;;;;;;;4.17;3.20;;;;;;;-143.84;72.68;45030.03;5072343;28;20445;-77
2022/06/28 01:08:46;;;;;;;3.87;3.47;;;;;;;-143.84;72.33;45037.66;5072304;28;20666;-78
2022/06/28 01:11:22;;;;;;;7.90;3.70;;;;;;;-143.84;72.30;45049.06;5071263;28;21149;-77
2022/06/28 01:13:50;;;;;;;7.60;4.10;;;;;;;-143.84;72.11;45035.75;5070320;28;20447;-78
2022/06/28 01:16:19;;;;;;;9.97;3.97;;;;;;;-143.84;71.92;45043.34;5071089;28;20494;-78
2022/06/28 01:18:47;;;;;;;10.47;3.87;;;;;;;-143.84;71.58;45028.13;5071468;28;20432;-77
2022/06/28 01:21:15;;;;;;;5.10;3.77;;;;;;;-143.84;71.42;45022.41;5071236;28;20944;-78
2022/06/28 01:23:45;;;;;;;7.63;3.20;;;;;;;-143.84;71.39;45037.66;5071645;28;20456;-77
2022/06/28 01:26:14;;;;;;;4.13;3.83;;;;;;;-143.84;71.33;45020.50;5072287;28;20953;-78
2022/06/28 01:28:43;;;;;;;6.50;4.00;;;;;;;-143.84;71.20;45024.31;5072412;28;21211;-77
2022/06/28 01:31:11;;;;;;;3.80;3.40;;;;;;;-143.84;71.05;45033.84;5072012;28;20922;-78
2022/06/28 01:33:39;;;;;;;15.17;3.97;;;;;;;-143.84;71.31;45041.44;5071939;28;20483;-77
2022/06/28 01:36:08;;;;;;;6.90;3.53;;;;;;;-143.84;71.72;45028.13;5071871;28;20425;-77
2022/06/28 01:38:36;;;;;;;6.30;4.10;;;;;;;-143.84;71.46;45039.53;5071161;28;21343;-77
2022/06/28 01:41:06;;;;;;;6.10;3.53;;;;;;;-143.84;71.50;45016.69;5072076;28;20554;-77
2022/06/28 01:43:34;;;;;;;5.90;3.30;;;;;;;-143.84;71.56;45010.97;5071663;28;20432;-77
2022/06/28 01:46:03;;;;;;;6.93;4.10;;;;;;;-143.84;71.74;45045.25;5071606;28;20857;-77
2022/06/28 01:48:33;;;;;;;6.67;4.33;;;;;;;-143.84;72.11;45014.78;5071509;28;20491;-77
2022/06/28 01:51:00;;;;;;;7.00;3.60;;;;;;;-143.84;72.23;45050.97;5071612;28;20449;-77
2022/06/28 01:53:27;;;;;;;6.67;4.20;;;;;;;-143.84;71.99;45037.66;5071493;28;20455;-77
2022/06/28 01:55:54;;;;;;;4.57;3.43;;;;;;;-143.84;71.98;45037.66;5071309;28;20441;-78
2022/06/28 01:58:23;;;;;;;6.97;3.43;;;;;;;-143.84;71.96;45016.69;5071200;28;20480;-77
2022/06/28 02:00:50;;;;;;;6.50;3.13;;;;;;;-143.84;72.03;45033.84;5071150;28;20514;-77
2022/06/28 02:03:17;;;;;;;6.10;3.60;;;;;;;-143.84;72.52;45050.97;5071536;28;20890;-78
2022/06/28 02:05:44;;;;;;;6.67;3.80;;;;;;;-143.84;72.78;45039.53;5071189;28;20490;-78
2022/06/28 02:08:11;;;;;;;12.53;4.00;;;;;;;-143.84;72.85;45030.03;5071347;28;20441;-77
2022/06/28 02:10:38;;;;;;;7.43;3.60;;;;;;;-143.84;72.82;45028.13;5071450;28;20448;-77
2022/06/28 02:13:06;;;;;;;9.43;3.87;;;;;;;-143.84;72.77;45041.44;5063470;28;20437;-77
2022/06/28 02:15:34;;;;;;;4.80;3.50;;;;;;;-143.84;72.92;45020.50;5071622;28;20421;-78
2022/06/28 02:18:02;;;;;;;6.03;3.70;;;;;;;-143.84;72.76;45030.03;5070796;28;20437;-77
2022/06/28 02:20:29;;;;;;;9.20;3.93;;;;;;;-143.84;73.21;45031.94;5071147;28;21308;-77
2022/06/28 02:22:57;;;;;;;8.47;3.97;;;;;;;-143.84;73.18;45022.41;5071280;28;20503;-77
2022/06/28 02:25:24;;;;;;;5.50;3.80;;;;;;;-143.84;73.82;45045.25;5071300;28;20432;-77
2022/06/28 02:27:52;;;;;;;6.13;4.17;;;;;;;-143.84;74.13;45054.78;5071063;28;20503;-77
2022/06/28 02:30:21;;;;;;;7.80;3.67;;;;;;;-143.84;74.27;45007.19;5071176;28;20437;-77
2022/06/28 02:32:49;;;;;;;3.97;3.60;;;;;;;-143.84;74.30;45014.78;5070908;28;21306;-77
2022/06/28 02:40:46;;;;;;;3.90;3.60;;;;;;;-143.84;74.47;45039.53;5070706;28;20511;-78
2022/06/28 02:43:13;;;;;;;7.77;3.83;;;;;;;-143.84;74.43;45030.03;5070940;28;20429;-79
2022/06/28 02:45:42;;;;;;;6.43;3.80;;;;;;;-143.84;74.25;45041.44;5070670;28;20431;-79
2022/06/28 02:48:11;;;;;;;8.87;3.97;;;;;;;-143.84;74.32;45043.34;5070959;28;20441;-79
2022/06/28 02:50:38;;;;;;;5.10;4.40;;;;;;;-143.84;74.31;45014.78;5070833;28;20452;-78
2022/06/28 02:53:06;;;;;;;4.43;3.63;;;;;;;-143.84;74.47;45035.75;5070896;28;20433;-78
2022/06/28 02:55:33;;;;;;;3.97;3.60;;;;;;;-143.84;74.21;45028.13;5070725;28;20498;-79
2022/06/28 02:58:00;;;;;;;5.93;3.60;;;;;;;-143.84;74.12;45045.25;5070469;28;20480;-79
2022/06/28 03:00:28;;;;;;;7.60;4.20;;;;;;;-143.84;74.21;45054.78;5071006;28;20484;-78
2022/06/28 03:02:56;;;;;;;6.63;4.00;;;;;;;-143.84;74.18;45030.03;5070615;28;20528;-79
2022/06/28 03:05:24;;;;;;;3.80;3.50;;;;;;;-143.84;74.13;45037.66;5071147;28;20809;-75
2022/06/28 03:07:52;;;;;;;13.40;3.97;;;;;;;-143.84;73.93;45030.03;5069190;28;20460;-77
2022/06/28 03:10:19;;;;;;;3.97;3.20;;;;;;;-143.84;74.18;45030.03;5070802;28;20882;-79
2022/06/28 03:12:47;;;;;;;4.67;3.67;;;;;;;-143.84;73.88;45026.22;5070988;28;20453;-79
2022/06/28 03:15:15;;;;;;;3.93;3.53;;;;;;;-143.84;74.00;45037.66;5070412;28;20437;-81
2022/06/28 03:17:43;;;;;;;4.27;3.80;;;;;;;-143.84;73.35;45035.75;5070217;28;20527;-79
2022/06/28 03:20:11;;;;;;;4.00;3.43;;;;;;;-143.84;73.70;45030.03;5070526;28;20469;-78
2022/06/28 03:22:39;;;;;;;8.20;3.70;;;;;;;-143.84;73.31;45043.34;5069759;28;21155;-76
2022/06/28 03:25:08;;;;;;;7.00;3.80;;;;;;;-143.84;73.49;45045.25;5069786;28;20448;-79
2022/06/28 03:27:35;;;;;;;5.13;3.43;;;;;;;-143.84;73.39;45050.97;5069015;28;20444;-76
2022/06/28 03:30:03;;;;;;;6.23;4.07;;;;;;;-143.84;73.21;45009.09;5061356;28;20462;-78
2022/06/28 03:32:30;;;;;;;5.23;3.83;;;;;;;-143.84;72.79;45075.72;5049406;28;20446;-76
2022/06/28 03:34:58;;;;;;;5.43;3.43;;;;;;;-143.84;72.62;45018.59;5068598;28;20806;-75
2022/06/28 03:37:25;;;;;;;3.40;3.20;;;;;;;-143.84;72.19;45003.38;5071868;28;20806;-75
2022/06/28 03:39:53;;;;;;;4.07;3.30;;;;;;;-143.84;71.40;45062.41;5072427;28;20445;-75
2022/06/28 03:42:21;;;;;;;3.20;2.60;;;;;;;-143.84;69.39;45026.22;5072534;28;20444;-75
2022/06/28 03:44:48;;;;;;;4.73;3.80;;;;;;;-143.84;68.09;45007.19;5072790;28;20794;-75
2022/06/28 03:47:15;;;;;;;6.57;3.73;;;;;;;-143.84;68.59;45031.94;5072625;28;20938;-75
2022/06/28 03:49:42;;;;;;;5.90;3.97;;;;;;;-143.84;68.80;45028.13;5072610;28;20448;-75
2022/06/28 03:52:09;;;;;;;4.67;3.50;;;;;;;-143.84;69.03;45028.13;5072499;28;20437;-75
2022/06/28 03:54:37;;;;;;;11.43;3.43;;;;;;;-143.84;69.43;45026.22;5072317;28;20498;-76
2022/06/28 03:57:06;;;;;;;5.60;3.40;;;;;;;-143.84;69.49;45020.50;5072395;28;20537;-76
2022/06/28 03:59:33;;;;;;;6.33;4.20;;;;;;;-143.84;69.51;45022.41;5072574;28;20502;-76
2022/06/28 04:02:01;;;;;;;4.30;3.60;;;;;;;-143.84;69.47;45018.59;5072989;28;20522;-76
2022/06/28 04:04:28;;;;;;;5.83;3.43;;;;;;;-143.84;70.06;45020.50;5072218;28;20440;-76
2022/06/28 04:06:55;;;;;;;8.30;3.90;;;;;;;-143.84;69.72;45009.09;5072854;28;20471;-76
2022/06/28 04:09:23;;;;;;;9.07;4.10;;;;;;;-143.84;67.50;45043.34;5072578;28;20437;-76
2022/06/28 04:11:50;;;;;;;7.83;3.10;;;;;;;-143.84;66.36;45037.66;5072439;28;20961;-76
2022/06/28 04:14:18;;;;;;;3.50;3.10;;;;;;;-143.84;64.56;45018.59;5072381;28;20502;-76
2022/06/28 04:16:45;;;;;;;10.67;3.13;;;;;;;-143.84;62.79;44984.31;5072236;28;20436;-76
2022/06/28 04:19:13;;;;;;;4.43;3.90;;;;;;;-143.84;61.92;44991.94;5071994;28;20441;-76
2022/06/28 04:21:40;;;;;;;5.80;3.20;;;;;;;-143.84;61.18;44965.28;5070442;28;20485;-76
2022/06/28 04:24:07;;;;;;;7.13;3.23;;;;;;;-143.84;58.87;45007.19;5070032;28;20506;-76
2022/06/28 04:26:35;;;;;;;12.13;3.57;;;;;;;-143.84;58.39;45003.38;5071628;28;20429;-76
2022/06/28 04:29:02;;;;;;;7.03;2.83;;;;;;;-143.84;57.88;44980.53;5071250;28;21159;-76
2022/06/28 04:31:31;;;;;;;5.70;3.30;;;;;;;-143.84;57.29;45018.59;5071129;28;20448;-76
2022/06/28 04:33:58;;;;;;;7.13;3.90;;;;;;;-143.84;57.26;44990.03;5071753;28;20456;-76
2022/06/28 04:36:26;;;;;;;5.47;2.63;;;;;;;-143.84;56.89;44986.22;5071784;28;20475;-76
2022/06/28 04:38:53;;;;;;;11.83;3.60;;;;;;;-143.84;56.81;44976.72;5072181;28;20441;-76
2022/06/28 04:41:23;;;;;;;15.33;4.20;;;;;;;-143.84;56.17;44997.66;5071712;28;20530;-76
2022/06/28 04:43:53;;;;;;;6.30;3.80;;;;;;;-143.84;55.62;44990.03;5071737;28;20444;-76
2022/06/28 04:46:20;;;;;;;8.13;3.90;;;;;;;-143.84;56.03;44976.72;5071429;28;21135;-76
2022/06/28 04:48:49;;;;;;;4.80;3.13;;;;;;;-143.84;55.70;44971.00;5071810;28;20515;-76
2022/06/28 04:51:16;;;;;;;7.33;3.60;;;;;;;-143.84;54.86;44953.88;5072532;28;20456;-76
2022/06/28 04:53:45;;;;;;;11.93;3.00;;;;;;;-143.84;54.83;45010.97;5072290;28;20996;-76
2022/06/28 04:56:14;;;;;;;6.63;3.27;;;;;;;-143.84;54.49;44957.66;5071631;28;21008;-76
2022/06/28 04:58:41;;;;;;;8.00;3.10;;;;;;;-143.84;53.83;44969.09;5071864;28;21072;-76
2022/06/28 05:01:09;;;;;;;4.70;3.30;;;;;;;-143.84;53.80;44991.94;5072184;28;20488;-77
2022/06/28 05:03:37;;;;;;;14.83;3.80;;;;;;;-143.84;52.74;44976.72;5072546;28;20433;-77
2022/06/28 05:06:06;;;;;;;3.97;3.40;;;;;;;-143.84;52.45;44950.06;5071737;28;20439;-76
2022/06/28 05:08:33;;;;;;;6.27;2.70;;;;;;;-143.84;51.09;44932.91;5071629;28;20436;-76
2022/06/28 05:11:01;;;;;;;6.90;3.03;;;;;;;-143.84;51.32;44940.53;5071207;28;20457;-76
2022/06/28 05:13:29;;;;;;;14.23;3.67;;;;;;;-143.84;51.09;44980.53;5071735;28;20452;-76
2022/06/28 05:15:56;;;;;;;4.07;3.60;;;;;;;-143.84;51.47;44946.25;5071637;28;20997;-76
2022/06/28 05:18:23;;;;;;;7.30;3.53;;;;;;;-143.84;50.66;44963.38;5071747;28;20964;-76
2022/06/28 05:20:50;;;;;;;11.63;3.93;;;;;;;-143.84;48.85;44957.66;5071030;28;20480;-76
2022/06/28 05:23:19;;;;;;;5.30;3.67;;;;;;;-143.84;48.59;44961.47;5071175;28;20440;-76
2022/06/28 05:25:46;;;;;;;7.23;3.30;;;;;;;-143.84;49.01;44944.34;5070829;28;20448;-76
2022/06/28 05:28:13;;;;;;;6.00;3.67;;;;;;;-143.84;47.92;44923.41;5071219;28;20441;-76
2022/06/28 05:30:40;;;;;;;5.70;3.30;;;;;;;-143.84;47.09;44931.00;5071172;28;20448;-77
2022/06/28 05:33:07;;;;;;;9.03;3.10;;;;;;;-143.84;46.52;44908.16;5070961;28;20872;-77
2022/06/28 05:35:34;;;;;;;7.60;2.77;;;;;;;-143.84;45.25;44951.97;5070484;28;20444;-76
2022/06/28 05:38:02;;;;;;;3.20;2.90;;;;;;;-143.84;45.06;44944.34;5069433;28;20502;-75
2022/06/28 05:40:31;;;;;;;3.80;2.57;;;;;;;-143.84;44.86;44934.81;5069508;28;20463;-75
2022/06/28 05:42:58;;;;;;;18.33;3.03;;;;;;;-143.84;45.27;44919.59;5069761;28;20436;-75
2022/06/28 05:45:28;;;;;;;2.80;2.60;;;;;;;-143.84;44.35;44917.69;5069495;28;20869;-75
2022/06/28 05:47:55;;;;;;;3.60;2.87;;;;;;;-143.84;44.08;44925.31;5069277;28;20850;-75
2022/06/28 05:50:23;;;;;;;5.60;3.27;;;;;;;-143.84;43.78;44894.84;5069229;28;20444;-75
2022/06/28 05:52:51;;;;;;;7.90;2.67;;;;;;;-143.84;43.02;44871.97;5069193;28;20520;-75
2022/06/28 05:55:18;;;;;;;5.87;3.03;;;;;;;-143.84;42.00;44925.31;5069536;28;20433;-75
2022/06/28 05:57:47;;;;;;;6.00;2.73;;;;;;;-143.84;42.08;44917.69;5068959;28;20542;-75
2022/06/28 06:00:15;;;;;;;3.70;2.70;;;;;;;-143.84;42.60;44904.34;5068847;28;20448;-75
2022/06/28 06:02:42;;;;;;;3.57;2.70;;;;;;;-143.84;42.14;44931.00;5069102;28;20992;-75
2022/06/28 06:05:11;;;;;;;7.33;2.53;;;;;;;-143.84;42.02;44870.09;5069136;28;21009;-75
2022/06/28 06:07:38;;;;;;;9.23;2.60;;;;;;;-143.84;41.62;44894.84;5069284;28;20505;-74
2022/06/28 06:10:06;;;;;;;4.37;2.87;;;;;;;-143.84;41.05;44902.44;5069257;28;20440;-75
2022/06/28 06:12:34;;;;;;;8.00;2.93;;;;;;;-143.84;41.37;44900.53;5069152;28;20449;-75
2022/06/28 06:15:03;;;;;;;4.37;2.70;;;;;;;-143.84;40.91;44906.25;5069009;28;20447;-75
2022/06/28 06:17:30;;;;;;;16.40;3.40;;;;;;;-143.84;40.71;44889.13;5068895;28;20869;-74
2022/06/28 06:19:58;;;;;;;3.03;2.70;;;;;;;-143.84;40.54;44898.66;5068763;28;20440;-75
2022/06/28 06:22:25;;;;;;;5.73;2.90;;;;;;;-143.84;40.49;44896.75;5068744;28;20997;-75
2022/06/28 06:24:52;;;;;;;11.43;3.17;;;;;;;-143.84;40.60;44891.03;5068763;28;20425;-75
2022/06/28 06:27:19;;;;;;;6.20;3.60;;;;;;;-143.84;39.50;44894.84;5068915;28;20458;-75
2022/06/28 06:29:46;;;;;;;6.30;2.87;;;;;;;-143.84;40.00;44906.25;5068798;28;20447;-75
2022/06/28 06:32:15;;;;;;;3.87;2.30;;;;;;;-143.84;39.11;44898.66;5068952;28;20444;-75
2022/06/28 06:34:42;;;;;;;4.40;2.73;;;;;;;-143.84;40.17;44892.94;5068689;28;20966;-75
2022/06/28 06:37:10;;;;;;;9.60;2.40;;;;;;;-143.84;39.20;44870.09;5068806;28;20433;-75
2022/06/28 06:39:38;;;;;;;3.33;2.87;;;;;;;-143.84;39.29;44873.88;5068842;28;20445;-75
2022/06/28 06:42:06;;;;;;;9.10;3.20;;;;;;;-143.84;38.74;44873.88;5068361;28;20491;-75
2022/06/28 06:44:33;;;;;;;4.27;2.70;;;;;;;-143.84;39.27;44858.66;5068493;28;20510;-75
2022/06/28 06:47:00;;;;;;;4.20;2.90;;;;;;;-143.84;38.80;44873.88;5068555;28;20936;-75
2022/06/28 06:49:29;;;;;;;10.23;2.57;;;;;;;-143.84;37.81;44854.84;5068503;28;20448;-75
2022/06/28 06:51:56;;;;;;;9.33;2.70;;;;;;;-143.84;37.91;44879.59;5068504;28;20441;-75
2022/06/28 06:54:24;;;;;;;5.20;3.23;;;;;;;-143.84;37.41;44864.38;5068548;28;20882;-75
2022/06/28 06:56:51;;;;;;;5.00;3.17;;;;;;;-143.84;38.24;44856.75;5068444;28;20481;-75
2022/06/28 06:59:18;;;;;;;10.03;2.80;;;;;;;-143.84;37.18;44870.09;5068342;28;20437;-75
2022/06/28 07:01:46;;;;;;;3.17;2.97;;;;;;;-143.84;37.32;44866.28;5068255;28;20476;-75
2022/06/28 07:04:14;;;;;;;11.70;3.23;;;;;;;-143.84;37.78;44851.03;5068468;28;20539;-75
2022/06/28 07:06:42;;;;;;;3.10;2.80;;;;;;;-143.84;37.98;44864.38;5068384;28;20482;-75
2022/06/28 07:09:10;;;;;;;7.23;3.07;;;;;;;-143.84;38.42;44856.75;5068221;28;20532;-75
2022/06/28 07:11:37;;;;;;;5.03;2.77;;;;;;;-143.84;38.10;44854.84;5069932;28;20491;-75
2022/06/28 07:14:04;;;;;;;5.73;2.70;;;;;;;-143.84;37.73;44879.59;5072244;28;21068;-75
2022/06/28 07:16:32;;;;;;;6.40;2.60;;;;;;;-143.84;37.86;44852.94;5071941;28;20437;-75
2022/06/28 07:18:59;;;;;;;4.40;2.87;;;;;;;-143.84;37.56;44828.19;5072149;28;20502;-75
2022/06/28 07:21:27;;;;;;;3.83;3.00;;;;;;;-143.84;37.16;44839.63;5072370;28;20481;-75
2022/06/28 07:23:56;;;;;;;9.93;2.67;;;;;;;-143.84;36.75;44826.28;5072281;28;20531;-75
2022/06/28 07:26:25;;;;;;;8.13;3.00;;;;;;;-143.84;37.06;44832.00;5072194;28;20520;-75
2022/06/28 07:28:52;;;;;;;6.63;2.93;;;;;;;-143.84;37.00;44860.56;5071979;28;20462;-75
2022/06/28 07:31:19;;;;;;;5.70;3.23;;;;;;;-143.84;36.84;44858.66;5071932;28;20494;-75
2022/06/28 07:33:47;;;;;;;4.87;3.17;;;;;;;-143.84;37.39;44843.44;5072122;28;20845;-75
2022/06/28 07:36:15;;;;;;;3.37;3.07;;;;;;;-143.84;37.29;44851.03;5071830;28;20444;-75
2022/06/28 07:38:43;;;;;;;6.83;2.63;;;;;;;-143.84;37.41;44885.31;5071915;28;20445;-75
2022/06/28 07:41:11;;;;;;;6.83;3.10;;;;;;;-143.84;37.66;44849.13;5071712;28;20440;-75
2022/06/28 07:43:39;;;;;;;15.50;3.50;;;;;;;-143.84;36.98;44830.09;5071676;28;20524;-75
2022/06/28 07:46:06;;;;;;;4.80;2.43;;;;;;;-143.84;36.09;44837.72;5071232;28;21019;-75
2022/06/28 07:48:34;;;;;;;4.37;2.30;;;;;;;-143.84;36.61;44841.53;5071585;28;20432;-75
2022/06/28 07:53:45;;;;;;;3.80;2.80;;;;;;;-143.84;35.90;44812.97;5071721;28;20598;-75
2022/06/28 07:56:14;;;;;;;4.27;2.43;;;;;;;-143.84;35.93;44828.19;5071527;28;20497;-75
2022/06/28 07:58:41;;;;;;;8.93;2.43;;;;;;;-143.84;36.08;44830.09;5071390;28;20488;-74
2022/06/28 08:01:08;;;;;;;5.53;2.60;;;;;;;-143.84;35.41;44826.28;5071164;28;20441;-75
2022/06/28 08:03:35;;;;;;;3.53;2.20;;;;;;;-143.84;35.25;44818.66;5071534;28;20437;-75
2022/06/28 08:06:02;;;;;;;5.40;2.40;;;;;;;-143.84;34.98;44812.97;5071258;28;20515;-75
2022/06/28 08:08:30;;;;;;;3.97;2.30;;;;;;;-143.84;35.49;44799.63;5071468;28;20453;-75
2022/06/28 08:10:57;;;;;;;7.93;2.73;;;;;;;-143.84;34.89;44849.13;5071320;28;20429;-75
2022/06/28 08:13:26;;;;;;;5.00;2.63;;;;;;;-143.84;35.59;44820.56;5071152;28;20445;-75
2022/06/28 08:15:53;;;;;;;7.07;3.30;;;;;;;-143.84;36.61;44790.13;5071233;28;20460;-75
2022/06/28 08:18:20;;;;;;;3.60;2.57;;;;;;;-143.84;34.88;44824.38;5071635;28;20453;-75
2022/06/28 08:20:48;;;;;;;2.60;2.40;;;;;;;-143.84;34.69;44830.09;5070660;28;20441;-74
2022/06/28 08:23:15;;;;;;;9.43;2.60;;;;;;;-143.84;33.91;44801.53;5067844;28;20476;-75
2022/06/28 08:25:44;;;;;;;5.23;2.50;;;;;;;-143.84;35.40;44837.72;5070715;28;20437;-75
2022/06/28 08:28:11;;;;;;;7.83;2.43;;;;;;;-143.84;34.95;44763.47;5071415;28;20504;-75
2022/06/28 08:30:40;;;;;;;4.90;2.67;;;;;;;-143.84;34.94;44790.13;5070543;28;20515;-75
2022/06/28 08:33:08;;;;;;;5.77;2.33;;;;;;;-143.84;35.10;44790.13;5070769;28;20965;-74
2022/06/28 08:35:35;;;;;;;7.17;2.97;;;;;;;-143.84;34.64;44767.25;5070377;28;20502;-74
2022/06/28 08:38:04;;;;;;;9.03;2.47;;;;;;;-143.84;34.39;44809.16;5070806;28;20453;-74
2022/06/28 08:40:32;;;;;;;6.37;2.43;;;;;;;-143.84;33.74;44782.50;5069043;28;20472;-75
2022/06/28 08:43:01;;;;;;;5.10;2.27;;;;;;;-143.84;32.78;44763.47;5069748;28;20518;-74
2022/06/28 08:45:28;;;;;;;7.90;2.80;;;;;;;-143.84;34.00;44767.25;5070183;28;20841;-74
2022/06/28 08:47:58;;;;;;;3.50;2.13;;;;;;;-143.84;32.11;44780.59;5069958;28;20499;-74
2022/06/28 08:50:33;;;;;;;3.37;2.17;;;;;;;-143.84;33.03;44750.13;5069971;28;20967;-74
2022/06/28 08:53:02;;;;;;;13.30;2.50;;;;;;;-143.84;31.77;44797.72;5091009;28;20455;-74
2022/06/28 08:55:31;;;;;;;11.43;2.70;;;;;;;-143.84;32.65;44761.56;5090164;28;20444;-74
2022/06/28 08:57:59;;;;;;;6.80;2.93;;;;;;;-143.84;33.11;44755.84;5090301;28;20480;-74
2022/06/28 09:00:26;;;;;;;4.93;2.70;;;;;;;-143.84;32.66;44795.81;5090639;28;20428;-75
2022/06/28 09:02:55;;;;;;;2.97;2.00;;;;;;;-143.84;33.94;44782.50;5090480;28;20509;-74
2022/06/28 09:05:26;;;;;;;5.70;2.53;;;;;;;-143.84;32.41;44772.97;5087924;28;20489;-74
2022/06/28 09:07:55;;;;;;;3.20;2.47;;;;;;;-143.84;32.40;44778.69;5090662;28;20448;-74
2022/06/28 09:10:23;;;;;;;3.23;2.63;;;;;;;-143.84;33.16;44778.69;5090173;28;20820;-75
2022/06/28 09:12:56;;;;;;;6.33;2.23;;;;;;;-143.84;32.44;44778.69;5090328;28;20451;-75
2022/06/28 09:15:23;;;;;;;7.03;2.83;;;;;;;-143.84;31.86;44782.50;5090095;28;20435;-75
2022/06/28 09:17:53;;;;;;;7.43;2.73;;;;;;;-143.84;32.46;44793.91;5090356;28;20863;-75
2022/06/28 09:20:21;;;;;;;5.80;2.77;;;;;;;-143.84;32.46;44763.47;5090048;28;20530;-75
2022/06/28 09:22:49;;;;;;;4.60;3.10;;;;;;;-143.84;32.11;44805.34;5087997;28;20475;-75
2022/06/28 09:25:28;;;;;;;13.43;3.17;;;;;;;-143.84;32.83;44771.06;5070314;28;20457;-75
2022/06/28 09:27:57;;;;;;;3.60;2.57;;;;;;;-143.84;32.29;44782.50;5069036;28;20861;-75
2022/06/28 09:30:26;;;;;;;6.50;2.50;;;;;;;-143.84;33.57;44772.97;5068897;28;20456;-75
2022/06/28 09:32:54;;;;;;;8.13;3.30;;;;;;;-143.84;32.02;44771.06;5068894;28;20925;-75
2022/06/28 09:35:24;;;;;;;3.77;2.73;;;;;;;-143.84;33.41;44767.25;5069142;28;20456;-75
2022/06/28 09:37:53;;;;;;;6.43;2.60;;;;;;;-143.84;33.62;44790.13;5068333;28;20448;-75
2022/06/28 09:40:23;;;;;;;10.40;2.50;;;;;;;-143.84;33.71;44769.16;5069054;28;20465;-75
2022/06/28 09:43:06;;;;;;;4.47;2.30;;;;;;;-143.84;33.09;44776.78;5068819;28;20496;-75
2022/06/28 09:45:34;;;;;;;6.70;2.80;;;;;;;-143.84;31.71;44793.91;5069994;28;20912;-75
2022/06/28 09:48:02;;;;;;;8.93;2.67;;;;;;;-143.84;31.80;44809.16;5068784;28;20973;-75
2022/06/28 09:50:31;;;;;;;4.00;2.90;;;;;;;-143.84;31.69;44769.16;5068479;28;20448;-75
2022/06/28 09:53:01;;;;;;;2.83;2.53;;;;;;;-143.84;32.69;44778.69;5068764;28;20452;-75
2022/06/28 09:55:30;;;;;;;7.93;2.50;;;;;;;-143.84;33.08;44797.72;5069824;28;20779;-75
2022/06/28 09:57:58;;;;;;;17.37;3.40;;;;;;;-143.84;32.08;44761.56;5068143;28;20503;-75
2022/06/28 10:00:26;;;;;;;7.13;2.90;;;;;;;-143.84;32.54;44786.31;5068508;28;20460;-75
2022/06/28 10:02:56;;;;;;;6.60;2.70;;;;;;;-143.84;32.44;44784.41;5068487;28;20787;-75
2022/06/28 10:05:23;;;;;;;5.77;2.90;;;;;;;-143.84;32.36;44753.94;5068581;28;20452;-75
2022/06/28 10:07:51;;;;;;;5.90;2.83;;;;;;;-143.84;32.16;44805.34;5067923;28;20452;-75
2022/06/28 10:10:22;;;;;;;9.00;2.60;;;;;;;-143.84;32.20;44774.88;5067988;28;20463;-75
2022/06/28 10:15:54;;;;;;;5.37;3.07;;;;;;;-143.84;33.37;44830.09;5017473;28;20602;-74
2022/06/28 10:18:25;;;;;;;7.83;2.93;;;;;;;-143.84;33.51;44803.44;5013735;28;20454;-75
2022/06/28 10:20:52;;;;;;;5.37;3.17;;;;;;;-143.84;34.31;44832.00;5047613;28;20448;-75
2022/06/28 10:23:27;;;;;;;4.50;3.30;;;;;;;-143.84;34.94;44830.09;5067859;28;20489;-74
2022/06/28 10:26:21;;;;;;;4.07;2.80;;;;;;;-143.84;34.28;44833.91;5068068;28;20510;-75
2022/06/28 10:29:00;;;;;;;8.97;2.80;;;;;;;-143.84;35.07;44816.78;5048945;28;20825;-74
2022/06/28 10:31:38;;;;;;;5.93;3.33;;;;;;;-143.84;35.42;44809.16;5068039;28;20863;-74
2022/06/28 10:34:10;;;;;;;7.33;3.50;;;;;;;-143.84;35.67;44826.28;5069963;28;20463;-74
2022/06/28 10:36:51;;;;;;;7.77;3.37;;;;;;;-143.84;34.45;44753.94;5068528;28;20445;-75
2022/06/28 10:39:24;;;;;;;15.87;3.30;;;;;;;-143.84;34.41;44790.13;5067740;28;20444;-75
2022/06/28 10:41:54;;;;;;;8.00;3.17;;;;;;;-143.84;34.34;44790.13;5067972;28;20889;-74
2022/06/28 10:44:22;;;;;;;7.83;2.97;;;;;;;-143.84;34.02;44818.66;5068030;28;20784;-75
2022/06/28 10:46:51;;;;;;;5.77;2.97;;;;;;;-143.84;34.34;44782.50;5073935;28;20452;-74
2022/06/28 10:49:20;;;;;;;6.43;3.50;;;;;;;-143.84;33.83;44780.59;5074160;28;20514;-74
2022/06/28 10:52:09;;;;;;;9.73;3.17;;;;;;;-143.84;34.48;44832.00;5074912;28;20539;-75
2022/06/28 10:54:37;;;;;;;7.73;3.30;;;;;;;-143.84;34.26;44839.63;5078843;28;20453;-74
2022/06/28 10:57:24;;;;;;;5.63;4.03;;;;;;;-143.84;35.05;44845.31;5074588;28;20564;-74
2022/06/28 10:59:53;;;;;;;11.03;3.80;;;;;;;-143.84;35.49;44830.09;5081897;28;20488;-74
2022/06/28 11:02:21;;;;;;;10.00;3.30;;;;;;;-143.84;35.76;44864.38;5079878;28;21533;-74
2022/06/28 11:05:05;;;;;;;3.33;3.03;;;;;;;-143.84;36.48;44851.03;5079234;28;20441;-75
2022/06/28 11:07:35;;;;;;;9.27;3.40;;;;;;;-143.84;36.02;44851.03;5081704;28;20498;-74
2022/06/28 11:10:13;;;;;;;6.47;3.30;;;;;;;-143.84;36.84;44873.88;5083442;28;20458;-74
2022/06/28 11:12:43;;;;;;;12.47;4.03;;;;;;;-143.84;37.04;44862.47;5079391;28;20987;-75
2022/06/28 11:15:12;;;;;;;3.33;3.07;;;;;;;-143.84;37.27;44860.56;5077217;28;20553;-75
2022/06/28 11:17:42;;;;;;;6.33;3.20;;;;;;;-143.84;37.08;44845.31;5079148;28;20790;-75
2022/06/28 11:20:11;;;;;;;5.20;3.53;;;;;;;-143.84;37.40;44852.94;5081325;28;20463;-75
2022/06/28 11:22:41;;;;;;;17.93;3.60;;;;;;;-143.84;38.37;44894.84;5076878;28;20488;-74
2022/06/28 11:25:10;;;;;;;6.57;3.87;;;;;;;-143.84;38.09;44856.75;5077598;28;20441;-75
2022/06/28 11:27:45;;;;;;;13.37;3.67;;;;;;;-143.84;38.78;44866.28;5078984;28;20447;-75
2022/06/28 11:30:14;;;;;;;5.57;3.97;;;;;;;-143.84;39.28;44852.94;5081791;28;20467;-74
2022/06/28 11:32:43;;;;;;;7.63;3.30;;;;;;;-143.84;39.34;44866.28;5078912;28;20562;-75
2022/06/28 11:35:12;;;;;;;9.17;4.07;;;;;;;-143.84;40.13;44839.63;5079000;28;20531;-75
2022/06/28 11:37:50;;;;;;;9.47;4.30;;;;;;;-143.84;39.93;44843.44;5077183;28;20432;-75